• Join FlightAware (Why Join?)
  • Login
  • US Flag 
11:21AM EDT


 

Airport Tracker/Info


-or-


 

Live Flight TrackerFlight Track Log ✈ AFL150 ✈ 30-Jun-2014 ✈ UUEE / SVO - MUHA / HAV

Flight Track Log - Related Links

Times and Time Zones

All times are in EDT time to prevent confusion due to time zone crossing. See the AFL150 flight status page for this flight to view local times or setup timezone preferences in your user account.

Time Position Orientation Groundspeed Altitude Reporting Facility
EDT Latitude Longitude Course Direction KTS MPH feet Rate Location/Type
06:20AM 56.0650 37.1643 308° West  Level FlightAware Approximate
06:21AM 56.1416 36.9856 308° West  Level FlightAware Approximate
06:22AM 56.2179 36.8062 307° West  Level FlightAware Approximate
06:23AM 56.2939 36.6260 307° West  Level FlightAware Approximate
06:24AM 56.3697 36.4452 307° West  Level FlightAware Approximate
06:25AM 56.4452 36.2636 307° West  Level FlightAware Approximate
06:26AM 56.5205 36.0813 307° West  Level FlightAware Approximate
06:27AM 56.5955 35.8983 307° West  Level FlightAware Approximate
06:28AM 56.6702 35.7145 307° West  Level FlightAware Approximate
06:29AM 56.7446 35.5301 306° West  Level FlightAware Approximate
06:30AM 56.8188 35.3448 306° West  Level FlightAware Approximate
06:31AM 56.8927 35.1589 306° West  Level FlightAware Approximate
06:32AM 56.9663 34.9722 306° West  Level FlightAware Approximate
06:33AM 57.0396 34.7848 306° West  Level FlightAware Approximate
06:34AM 57.1127 34.5967 306° West  Level FlightAware Approximate
06:35AM 57.1848 34.4029 304° West  Level FlightAware Approximate
06:36AM 57.2539 34.2090 303° West  Level FlightAware Approximate
06:37AM 57.3228 34.0144 303° West  Level FlightAware Approximate
06:38AM 57.3913 33.8190 303° West  Level FlightAware Approximate
06:39AM 57.4595 33.6230 303° West  Level FlightAware Approximate
06:40AM 57.5274 33.4262 303° West  Level FlightAware Approximate
06:41AM 57.5950 33.2286 303° West  Level FlightAware Approximate
06:42AM 57.6623 33.0304 302° West  Level FlightAware Approximate
06:43AM 57.7292 32.8314 302° West  Level FlightAware Approximate
06:44AM 57.7959 32.6316 302° West  Level FlightAware Approximate
06:45AM 57.8622 32.4312 302° West  Level FlightAware Approximate
06:46AM 57.9283 32.2299 302° West  Level FlightAware Approximate
06:47AM 57.9940 32.0280 302° West  Level FlightAware Approximate
06:48AM 58.0593 31.8253 301° West  Level FlightAware Approximate
06:49AM 58.1244 31.6219 301° West  Level FlightAware Approximate
06:50AM 58.1892 31.4177 301° West  Level FlightAware Approximate
06:51AM 58.2536 31.2128 301° West  Level FlightAware Approximate
06:52AM 58.3176 31.0071 301° West  Level FlightAware Approximate
06:53AM 58.3814 30.8007 301° West  Level FlightAware Approximate
06:54AM 58.4448 30.5935 300° West  Level FlightAware Approximate
06:55AM 58.5079 30.3856 300° West  Level FlightAware Approximate
06:56AM 58.5706 30.1770 300° West  Level FlightAware Approximate
06:57AM 58.6331 29.9676 300° West  Level FlightAware Approximate
06:58AM 58.6951 29.7575 300° West  Level FlightAware Approximate
06:59AM 58.7569 29.5466 300° West  Level FlightAware Approximate
07:00AM 58.8183 29.3350 299° West  Level FlightAware Approximate
07:01AM 58.8793 29.1226 299° West  Level FlightAware Approximate
07:02AM 58.9400 28.9095 299° West  Level FlightAware Approximate
07:03AM 59.0004 28.6956 299° West  Level FlightAware Approximate
07:04AM 59.0604 28.4810 299° West  Level FlightAware Approximate
07:05AM 59.1200 28.2656 298° West  Level FlightAware Approximate
07:06AM 59.1793 28.0495 298° West  Level FlightAware Approximate
07:07AM 59.2382 27.8327 298° West  Level FlightAware Approximate
07:08AM 59.2967 27.6150 298° West  Level FlightAware Approximate
07:09AM 59.3549 27.3967 298° West  Level FlightAware Approximate
07:10AM 59.4128 27.1776 297° West  Level FlightAware Approximate
07:11AM 59.4702 26.9577 297° West  Level FlightAware Approximate
07:12AM 59.5273 26.7371 297° West  Level FlightAware Approximate
07:13AM 59.5840 26.5158 297° West  Level FlightAware Approximate
07:14AM 59.6404 26.2937 297° West  Level FlightAware Approximate
07:15AM 59.6963 26.0709 297° West  Level FlightAware Approximate
07:16AM 59.7519 25.8473 296° West  Level FlightAware Approximate
07:17AM 59.8071 25.6230 296° West  Level FlightAware Approximate
07:18AM 59.8619 25.3979 296° West  Level FlightAware Approximate
07:19AM 59.9164 25.1721 296° West  Level FlightAware Approximate
07:20AM 59.9704 24.9456 296° West  Level FlightAware Approximate
07:21AM 60.0241 24.7183 295° West  Level FlightAware Approximate
07:22AM 60.0773 24.4902 295° West  Level FlightAware Approximate
07:23AM 60.1302 24.2615 295° West  Level FlightAware Approximate
07:24AM 60.1827 24.0320 295° West  Level FlightAware Approximate
07:25AM 60.2348 23.8018 295° West  Level FlightAware Approximate
07:26AM 60.2864 23.5709 294° West  Level FlightAware Approximate
07:26AM 59.9360 26.4263 286° West 410 472 34,000  Level FlightAware ADS-B (EFHN)
07:27AM 60.0181 26.0771 301° West 427 491 34,000  Level FlightAware ADS-B (EFHN)
07:28AM 60.0476 25.9838 302° West 428 493 34,000  Level FlightAware ADS-B (EFHN)
07:29AM 60.1111 25.7783 301° West 428 493 34,000  Level FlightAware ADS-B (EFHN)
07:29AM 60.1413 25.6788 301° West 428 493 34,000  Level FlightAware ADS-B (EFHN)
07:30AM 60.2055 25.4649 301° West 427 491 34,000  Level FlightAware ADS-B (EFHN)
07:31AM 60.2663 25.2605 301° West 427 491 34,000  Level FlightAware ADS-B (EFHN)
07:32AM 60.2959 25.1601 301° West 428 493 34,000  Level FlightAware ADS-B (EFHN)
07:33AM 60.3552 24.9584 301° West 426 490 34,000  Level FlightAware ADS-B (EFHN)
07:34AM 60.4462 24.6447 300° West 425 489 34,000  Level FlightAware ADS-B (EFHN)
07:35AM 60.5018 24.4512 300° West 424 488 34,000  Level FlightAware ADS-B (EFHN)
07:36AM 60.5624 24.2377 300° West 428 493 34,000  Level FlightAware ADS-B (EFHN)
07:37AM 60.5937 24.1270 300° West 431 496 34,000  Level FlightAware ADS-B (EFHN)
07:37AM 60.6220 24.0261 300° West 433 498 34,000  Level FlightAware ADS-B (EFHN)
07:38AM 60.6834 23.8062 300° West 436 502 34,000  Level FlightAware ADS-B (EFHN)
07:39AM 60.7401 23.6016 299° West 438 504 34,000  Level FlightAware ADS-B (EFHN)
07:40AM 60.7703 23.4915 299° West 441 507 34,000  Level FlightAware ADS-B (EFHN)
07:41AM 60.8317 23.2665 299° West 443 510 34,000  Level FlightAware ADS-B (EFHN)
07:42AM 60.8921 23.0426 299° West 444 511 34,000  Level FlightAware ADS-B (EFHN)
07:43AM 60.9520 22.8183 299° West 449 517 34,000  Level FlightAware ADS-B (EFHN)
07:48AM 61.2643 21.6120 298° West 451 519 34,000  Level FlightAware ADS-B (EFHN)
07:51AM 61.4435 20.8884 297° West 457 526 34,000  Level FlightAware ADS-B (ESKB)
07:56AM 61.6960 19.8272 296° West 467 537 34,000  Level FlightAware ADS-B (ESKB)
07:58AM 61.9174 18.8273 291° West 461 531 34,000  Level FlightAware ADS-B (ESSG)
07:59AM 61.8165 19.1758 291° West  Level Estimated
07:59AM 61.9416 18.7001 291° West 461 531 34,000  Level FlightAware ADS-B (ESSG)
07:59AM 61.9649 18.5760 291° West 461 531 34,000  Level FlightAware ADS-B (ESSG)
08:00AM 61.8614 18.9271 291° West  Level Estimated
08:00AM 61.9890 18.4471 291° West 461 531 34,000  Level FlightAware ADS-B (ESSG)
08:00AM 62.0130 18.3180 291° West 461 531 34,000  Level FlightAware ADS-B (ESSG)
08:01AM 62.0477 18.1296 290° West 462 532 34,000  Level FlightAware ADS-B (ESSG)
08:02AM 62.0643 18.0113 290° West  Level Estimated
08:02AM 62.0710 18.0015 290° West 463 533 34,000  Level FlightAware ADS-B (ESSG)
08:02AM 62.1020 17.8303 290° West 462 532 34,000  Level FlightAware ADS-B (ESSG)
08:03AM 62.1093 17.7553 290° West  Level Estimated
08:03AM 62.1275 17.6883 291° West 465 535 34,000  Level FlightAware ADS-B (ESSG)
08:04AM 62.1629 17.4895 291° West 465 535 34,000  Level FlightAware ADS-B (ESSG)
08:04AM 62.1967 17.2981 291° West 466 536 34,000  Level FlightAware ADS-B (ESSG)
08:05AM 62.2018 17.2402 290° West  Level Estimated
08:05AM 62.2197 17.1668 290° West 465 535 34,000  Level FlightAware ADS-B (ESSG)
08:05AM 62.2418 17.0402 291° West 466 536 34,000  Level FlightAware ADS-B (ESSG)
08:06AM 62.2746 16.8496 290° West 466 536 34,000  Level FlightAware ADS-B (ESSG)
08:07AM 62.2909 16.7246 289° West  Level Estimated
08:07AM 62.2975 16.7156 290° West 467 537 34,000  Level FlightAware ADS-B (ESSG)
08:07AM 62.3282 16.5335 290° West 469 540 34,000  Level FlightAware ADS-B (ESSG)
08:08AM 62.3328 16.4692 289° West  Level Estimated
08:08AM 62.3525 16.3893 290° West 471 542 34,000  Level FlightAware ADS-B (ESSG)
08:08AM 62.3745 16.2568 290° West 473 544 34,000  Level FlightAware ADS-B (ESSG)
08:09AM 62.3973 16.1191 289° West 471 542 34,000  Level FlightAware ADS-B (ESSG)
08:09AM 62.4190 15.9867 289° West 471 542 34,000  Level FlightAware ADS-B (ESSG)
08:10AM 62.4218 15.9390 289° West  Level Estimated
08:10AM 62.4406 15.8541 288° West 471 542 34,000  Level FlightAware ADS-B (ESSG)
08:10AM 62.4622 15.7205 288° West 471 542 34,000  Level FlightAware ADS-B (ESSG)
08:11AM 62.4629 15.6767 288° West  Level Estimated
08:11AM 62.4835 15.5875 288° West 470 541 34,000  Level FlightAware ADS-B (ESSG)
08:12AM 62.5158 15.3843 288° West 470 541 34,000  Level FlightAware ADS-B (ESSG)
08:12AM 62.5367 15.2522 288° West 469 540 34,000  Level FlightAware ADS-B (ESSG)
08:13AM 62.5490 15.1421 288° West  Level Estimated
08:13AM 62.5659 15.0651 289° West 470 541 34,000  Level FlightAware ADS-B (ESSG)
08:13AM 62.5887 14.9170 289° West 470 541 34,000  Level FlightAware ADS-B (ESSG)
08:14AM 62.6292 14.6527 288° West 473 544 34,000  Level FlightAware ADS-B (ESSG)
08:15AM 62.6549 14.4837 288° West 473 544 34,000  Level FlightAware ADS-B (ESSG)
08:16AM 62.6898 14.2491 288° West 473 544 34,000  Level FlightAware ADS-B (ESSG)
08:16AM 62.7096 14.1150 288° West 472 543 34,000  Level FlightAware ADS-B (ESSG)
08:17AM 62.7368 13.9285 288° West 471 542 34,000  Level FlightAware ADS-B (ESSG)
08:18AM 62.7487 13.7965 287° West  Level Estimated
08:18AM 62.7596 13.7717 287° West 468 539 34,000  Level FlightAware ADS-B (ESSG)
08:19AM 62.7884 13.5266 287° West  Level Estimated
08:20AM 62.8284 13.2476 286° West  Level Estimated
08:21AM 62.8623 12.9825 286° West  Level Estimated
08:22AM 62.8958 12.7168 286° West  Level Estimated
08:23AM 62.9287 12.4504 285° West  Level Estimated
08:24AM 62.9612 12.1835 285° West  Level Estimated
08:25AM 62.9931 11.9159 285° West  Level Estimated
08:26AM 63.0246 11.6478 285° West  Level Estimated
08:27AM 63.0555 11.3791 284° West  Level Estimated
08:28AM 63.0859 11.1099 284° West  Level Estimated
08:29AM 63.1158 10.8400 284° West  Level Estimated
08:30AM 63.1452 10.5697 284° West  Level Estimated
08:31AM 63.1741 10.2988 283° West  Level Estimated
08:32AM 63.2025 10.0273 283° West  Level Estimated
08:33AM 63.2303 9.7554 283° West  Level Estimated
08:34AM 63.2576 9.4829 283° West  Level Estimated
08:35AM 63.2845 9.2099 282° West  Level Estimated
08:36AM 63.3107 8.9364 282° West  Level Estimated
08:37AM 63.3365 8.6624 282° West  Level Estimated
08:38AM 63.3617 8.3879 282° West  Level Estimated
08:39AM 63.3864 8.1129 281° West  Level Estimated
08:40AM 63.4106 7.8375 281° West  Level Estimated
08:41AM 63.4342 7.5616 281° West  Level Estimated
08:42AM 63.4573 7.2852 281° West  Level Estimated
08:43AM 63.4799 7.0085 280° West  Level Estimated
08:44AM 63.5019 6.7312 280° West  Level Estimated
08:45AM 63.5234 6.4536 280° West  Level Estimated
08:46AM 63.5444 6.1755 280° West  Level Estimated
08:47AM 63.5648 5.8971 279° West  Level Estimated
08:48AM 63.5847 5.6182 279° West  Level Estimated
08:49AM 63.6040 5.3390 279° West  Level Estimated
08:50AM 63.6229 5.0594 279° West  Level Estimated
08:51AM 63.6411 4.7794 278° West  Level Estimated
08:52AM 63.6588 4.4991 278° West  Level Estimated
08:53AM 63.6760 4.2184 278° West  Level Estimated
08:54AM 63.6926 3.9374 278° West  Level Estimated
08:55AM 63.7087 3.6561 277° West  Level Estimated
08:56AM 63.7242 3.3744 277° West  Level Estimated
08:57AM 63.7392 3.0924 277° West  Level Estimated
08:58AM 63.7536 2.8102 277° West  Level Estimated
08:59AM 63.7675 2.5277 276° West  Level Estimated
09:00AM 63.7808 2.2449 276° West  Level Estimated
09:01AM 63.7935 1.9618 276° West  Level Estimated
09:02AM 63.8057 1.6785 276° West  Level Estimated
09:03AM 63.8174 1.3950 275° West  Level Estimated
09:04AM 63.8285 1.1112 275° West  Level Estimated
09:05AM 63.8390 0.8272 275° West  Level Estimated
09:06AM 63.8490 0.5430 275° West  Level Estimated
09:07AM 63.8584 0.2585 274° West  Level Estimated
09:08AM 63.8673 -0.0260 274° West  Level Estimated
09:09AM 63.8756 -0.3108 274° West  Level Estimated
09:10AM 63.8834 -0.5957 274° West  Level Estimated
09:11AM 63.8905 -0.8808 273° West  Level Estimated
09:12AM 63.8972 -1.1660 273° West  Level Estimated
09:13AM 63.9032 -1.4514 273° West  Level Estimated
09:14AM 63.9087 -1.7368 273° West  Level Estimated
09:15AM 63.9137 -2.0224 272° West  Level Estimated
09:16AM 63.9180 -2.3081 272° West  Level Estimated
09:17AM 63.9218 -2.5938 272° West  Level Estimated
09:18AM 63.9251 -2.8796 272° West  Level Estimated
09:19AM 63.9278 -3.1655 271° West  Level Estimated
09:20AM 63.9299 -3.4514 271° West  Level Estimated
09:21AM 63.9315 -3.7374 271° West  Level Estimated
09:22AM 63.9325 -4.0234 271° West  Level Estimated
09:23AM 63.9329 -4.3094 270° West  Level Estimated
09:24AM 63.9328 -4.5954 270° West  Level Estimated
09:25AM 63.9321 -4.8814 270° West  Level Estimated
09:26AM 63.9308 -5.1674 270° West  Level Estimated
09:27AM 63.9290 -5.4534 269° West  Level Estimated
09:28AM 63.9266 -5.7393 269° West  Level Estimated
09:29AM 63.9237 -6.0251 269° West  Level Estimated
09:30AM 63.9202 -6.3109 269° West  Level Estimated
09:31AM 63.9161 -6.5966 268° West  Level Estimated
09:32AM 63.9115 -6.8822 268° West  Level Estimated
09:33AM 63.9063 -7.1678 268° West  Level Estimated
09:34AM 63.9005 -7.4532 268° West  Level Estimated
09:35AM 63.8942 -7.7385 267° West  Level Estimated
09:36AM 63.8873 -8.0236 267° West  Level Estimated
09:37AM 63.8799 -8.3086 267° West  Level Estimated
09:38AM 63.8719 -8.5935 266° West  Level Estimated
09:39AM 63.8633 -8.8782 266° West  Level Estimated
09:40AM 63.8542 -9.1627 266° West  Level Estimated
09:41AM 63.8445 -9.4470 266° West  Level Estimated
09:42AM 63.8343 -9.7311 265° West  Level Estimated
09:43AM 63.8235 -10.0150 265° West  Level Estimated
09:44AM 63.8121 -10.2987 265° West  Level Estimated
09:45AM 63.8002 -10.5821 265° West  Level Estimated
09:46AM 63.7878 -10.8653 264° West  Level Estimated
09:47AM 63.7748 -11.1483 264° West  Level Estimated
09:48AM 63.7612 -11.4309 264° West  Level Estimated
09:49AM 63.7471 -11.7133 264° West  Level Estimated
09:50AM 63.7324 -11.9955 263° West  Level Estimated
09:51AM 63.7172 -12.2773 263° West  Level Estimated
09:52AM 63.7014 -12.5588 263° West  Level Estimated
09:53AM 63.6851 -12.8400 263° West  Level Estimated
09:54AM 63.6682 -13.1208 262° West  Level Estimated
09:55AM 63.6508 -13.4014 262° West  Level Estimated
09:56AM 63.6328 -13.6815 262° West  Level Estimated
09:57AM 63.6143 -13.9613 262° West  Level Estimated
09:58AM 63.5953 -14.2408 261° West  Level Estimated
09:59AM 63.5757 -14.5198 261° West  Level Estimated
10:00AM 63.5556 -14.7985 261° West  Level Estimated
10:01AM 63.5349 -15.0768 261° West  Level Estimated
10:02AM 63.5137 -15.3546 260° West  Level Estimated
10:03AM 63.4919 -15.6321 260° West  Level Estimated
10:04AM 63.4697 -15.9091 260° West  Level Estimated
10:05AM 63.4468 -16.1857 260° West  Level Estimated
10:06AM 63.4235 -16.4618 259° West  Level Estimated
10:07AM 63.3996 -16.7375 259° West  Level Estimated
10:08AM 63.3752 -17.0127 259° West  Level Estimated
10:09AM 63.3503 -17.2875 259° West  Level Estimated
10:10AM 63.3248 -17.5618 258° West  Level Estimated
10:11AM 63.2988 -17.8355 258° West  Level Estimated
10:12AM 63.2723 -18.1088 258° West  Level Estimated
10:13AM 63.2452 -18.3816 258° West  Level Estimated
10:14AM 63.2177 -18.6538 257° West  Level Estimated
10:15AM 63.1896 -18.9256 257° West  Level Estimated
10:16AM 63.1610 -19.1968 257° West  Level Estimated
10:17AM 63.1319 -19.4674 257° West  Level Estimated
10:18AM 63.1022 -19.7376 256° West  Level Estimated
10:19AM 63.0721 -20.0071 256° West  Level Estimated
10:20AM 63.0415 -20.2761 256° West  Level Estimated
10:21AM 63.0103 -20.5445 256° West  Level Estimated
10:22AM 62.9786 -20.8124 256° West  Level Estimated
10:23AM 62.9464 -21.0797 255° West  Level Estimated
10:24AM 62.9138 -21.3463 255° West  Level Estimated
10:25AM 62.8806 -21.6124 255° West  Level Estimated
10:26AM 62.8469 -21.8779 255° West  Level Estimated
10:27AM 62.8127 -22.1427 254° West  Level Estimated
10:28AM 62.7780 -22.4070 254° West  Level Estimated
10:29AM 62.7429 -22.6706 254° West  Level Estimated
10:30AM 62.7072 -22.9336 254° West  Level Estimated
10:31AM 62.6711 -23.1959 253° West  Level Estimated
10:32AM 62.6344 -23.4576 253° West  Level Estimated
10:33AM 62.5973 -23.7187 253° West  Level Estimated
10:34AM 62.5597 -23.9790 253° West  Level Estimated
10:35AM 62.5216 -24.2388 252° West  Level Estimated
10:36AM 62.4830 -24.4978 252° West  Level Estimated
10:37AM 62.4439 -24.7562 252° West  Level Estimated
10:38AM 62.4044 -25.0139 252° West  Level Estimated
10:39AM 62.3644 -25.2710 252° West  Level Estimated
10:40AM 62.3239 -25.5273 251° West  Level Estimated
10:41AM 62.2830 -25.7829 251° West  Level Estimated
10:42AM 62.2415 -26.0379 251° West  Level Estimated
10:43AM 62.1996 -26.2921 251° West  Level Estimated
10:44AM 62.1573 -26.5457 250° West  Level Estimated
10:45AM 62.1145 -26.7985 250° West  Level Estimated
10:46AM 62.0712 -27.0506 250° West  Level Estimated
10:47AM 62.0275 -27.3020 250° West  Level Estimated
10:48AM 61.9833 -27.5527 250° West  Level Estimated
10:49AM 61.9387 -27.8026 249° West  Level Estimated
10:50AM 61.8936 -28.0518 249° West  Level Estimated
10:51AM 61.8480 -28.3002 249° West  Level Estimated
10:52AM 61.8021 -28.5480 249° West  Level Estimated
10:53AM 61.7556 -28.7950 248° West  Level Estimated
10:54AM 61.7088 -29.0412 248° West  Level Estimated
10:55AM 61.6614 -29.2866 248° West  Level Estimated
10:56AM 61.6137 -29.5314 248° West  Level Estimated
10:57AM 61.5655 -29.7753 248° West  Level Estimated
10:58AM 61.5169 -30.0186 247° West  Level Estimated
10:59AM 61.4678 -30.2610 247° West  Level Estimated
11:00AM 61.4184 -30.5027 247° West  Level Estimated
11:01AM 61.3684 -30.7436 247° West  Level Estimated
11:02AM 61.3181 -30.9837 246° West  Level Estimated
11:03AM 61.2673 -31.2231 246° West  Level Estimated
11:04AM 61.2162 -31.4617 246° West  Level Estimated
11:05AM 61.1646 -31.6995 246° West  Level Estimated
11:06AM 61.1126 -31.9365 246° West  Level Estimated
11:07AM 61.0602 -32.1728 245° Southwest  Level Estimated
11:08AM 61.0073 -32.4082 245° Southwest  Level Estimated
11:09AM 60.9541 -32.6429 245° Southwest  Level Estimated
11:10AM 60.9004 -32.8768 245° Southwest  Level Estimated
11:11AM 60.8464 -33.1099 245° Southwest  Level Estimated
11:12AM 60.7919 -33.3423 244° Southwest  Level Estimated
11:13AM 60.7371 -33.5738 244° Southwest  Level Estimated
11:14AM 60.6818 -33.8045 244° Southwest  Level Estimated
11:15AM 60.6262 -34.0344 244° Southwest  Level Estimated
11:16AM 60.5701 -34.2636 244° Southwest  Level Estimated
11:17AM 60.5137 -34.4919 243° Southwest  Level Estimated
11:18AM 60.4569 -34.7195 243° Southwest  Level Estimated
11:19AM 60.3997 -34.9462 243° Southwest  Level Estimated
11:20AM 60.3421 -35.1722 243° Southwest  Level Estimated
11:21AM 60.2841 -35.3974 243° Southwest  Level Estimated
11:22AM 60.2257 -35.6217 242° Southwest  Level Estimated
11:23AM 60.1670 -35.8453 242° Southwest  Level Estimated
11:24AM 60.1079 -36.0680 242° Southwest  Level Estimated
11:25AM 60.0484 -36.2900 242° Southwest  Level Estimated
11:26AM 59.9886 -36.5111 242° Southwest  Level Estimated
11:27AM 59.9284 -36.7315 241° Southwest  Level Estimated
11:28AM 59.8678 -36.9510 241° Southwest  Level Estimated
11:29AM 59.8068 -37.1698 241° Southwest  Level Estimated
11:30AM 59.7455 -37.3877 241° Southwest  Level Estimated
11:31AM 59.6839 -37.6049 241° Southwest  Level Estimated
11:32AM 59.6218 -37.8212 241° Southwest  Level Estimated
11:33AM 59.5594 -38.0368 240° Southwest  Level Estimated
11:34AM 59.4967 -38.2515 240° Southwest  Level Estimated
11:35AM 59.4336 -38.4655 240° Southwest  Level Estimated
11:36AM 59.3702 -38.6786 240° Southwest  Level Estimated
11:37AM 59.3064 -38.8910 240° Southwest  Level Estimated
11:38AM 59.2423 -39.1026 239° Southwest  Level Estimated
11:38AM 60.3000 -35.9833 239° Southwest 370 426 34,000  Level Gander Center
11:39AM 59.1778 -39.3133 239° Southwest  Level Estimated
11:39AM 60.2667 -36.1500 248° West 370 426 34,000  Level Gander Center
11:40AM 59.1130 -39.5233 239° Southwest  Level Estimated
11:40AM 60.2000 -36.3333 234° Southwest 370 426 34,000  Level Gander Center
11:41AM 59.0479 -39.7325 239° Southwest  Level Estimated
11:41AM 60.1500 -36.4833 236° Southwest 370 426 34,000  Level Gander Center
11:42AM 58.9824 -39.9408 239° Southwest  Level Estimated
11:42AM 60.1000 -36.6667 241° Southwest 370 426 34,000  Level Gander Center
11:43AM 58.9166 -40.1484 239° Southwest  Level Estimated
11:43AM 60.0333 -36.8500 234° Southwest 370 426 34,000  Level Gander Center
11:44AM 59.9833 -37.0000 236° Southwest 370 426 34,000  Level Gander Center
11:45AM 59.9333 -37.1667 239° Southwest 370 426 34,000  Level Gander Center
11:46AM 59.8667 -37.3500 234° Southwest 370 426 34,000  Level Gander Center
11:47AM 59.8167 -37.5333 242° Southwest 370 426 34,000  Level Gander Center
11:48AM 59.7500 -37.6833 229° Southwest 380 437 34,000  Level Gander Center
11:49AM 59.7000 -37.8500 239° Southwest 370 426 34,000  Level Gander Center
11:50AM 59.6500 -38.0333 242° Southwest 370 426 34,000  Level Gander Center
11:51AM 59.5833 -38.2000 232° Southwest 380 437 34,000  Level Gander Center
11:52AM 59.5333 -38.3500 237° Southwest 380 437 34,000  Level Gander Center
11:53AM 59.4667 -38.5333 234° Southwest 380 437 34,000  Level Gander Center
11:54AM 59.4167 -38.7000 240° Southwest 380 437 34,000  Level Gander Center
11:55AM 59.3500 -38.8667 232° Southwest 370 426 34,000  Level Gander Center
11:56AM 59.3000 -39.0167 237° Southwest 380 437 34,000  Level Gander Center
11:57AM 59.2333 -39.1833 232° Southwest 380 437 34,000  Level Gander Center
11:58AM 59.1833 -39.3667 242° Southwest 380 437 34,000  Level Gander Center
11:59AM 59.1167 -39.5333 232° Southwest 380 437 34,000  Level Gander Center
12:00PM 59.0667 -39.6833 237° Southwest 380 437 34,000  Level Gander Center
12:01PM 58.9833 -39.8500 226° Southwest 380 437 34,000  Level Gander Center
12:02PM 58.9500 -40.0167 249° West 390 449 34,000  Level Gander Center
12:03PM 58.8833 -40.2167 237° Southwest 380 437 34,000  Level Gander Center
12:04PM 58.8333 -40.3833 240° Southwest 380 437 34,000  Level Gander Center
12:05PM 58.7667 -40.5500 232° Southwest 380 437 34,000  Level Gander Center
12:06PM 58.7167 -40.7167 240° Southwest 380 437 34,000  Level Gander Center
12:07PM 58.6667 -40.8833 240° Southwest 380 437 34,000  Level Gander Center
12:08PM 58.6000 -41.0500 233° Southwest 380 437 34,000  Level Gander Center
12:09PM 58.5500 -41.2167 240° Southwest 380 437 34,000  Level Gander Center
12:10PM 58.4833 -41.3833 233° Southwest 380 437 34,000  Level Gander Center
12:11PM 58.4333 -41.5667 243° Southwest 380 437 34,000  Level Gander Center
12:12PM 58.3667 -41.7333 233° Southwest 380 437 34,000  Level Gander Center
12:13PM 58.3167 -41.9000 240° Southwest 390 449 34,000  Level Gander Center
12:14PM 58.2667 -42.0667 240° Southwest 380 437 34,000  Level Gander Center
12:15PM 58.2000 -42.2167 230° Southwest 380 437 34,000  Level Gander Center
12:16PM 58.1333 -42.3833 233° Southwest 390 449 34,000  Level Gander Center
12:17PM 58.0833 -42.5833 245° Southwest 390 449 34,000  Level Gander Center
12:18PM 58.0167 -42.7333 230° Southwest 390 449 34,000  Level Gander Center
12:19PM 57.9500 -42.9000 233° Southwest 390 449 34,000  Level Gander Center
12:20PM 57.9000 -43.0667 241° Southwest 390 449 34,000  Level Gander Center
12:21PM 57.8333 -43.2167 230° Southwest 380 437 34,000  Level Gander Center
12:22PM 57.7667 -43.3833 233° Southwest 380 437 34,000  Level Gander Center
12:23PM 57.7333 -43.5667 251° West 380 437 34,000  Level Gander Center
12:24PM 57.6667 -43.7167 230° Southwest 390 449 34,000  Level Gander Center
12:25PM 57.6000 -43.8833 233° Southwest 390 449 34,000  Level Gander Center
12:26PM 57.5333 -44.0333 230° Southwest 380 437 34,000  Level Gander Center
12:27PM 57.4667 -44.2000 233° Southwest 380 437 34,000  Level Gander Center
12:28PM 57.4000 -44.3500 231° Southwest 380 437 34,000  Level Gander Center
12:29PM 57.3500 -44.5333 243° Southwest 380 437 34,000  Level Gander Center
12:30PM 57.3000 -44.6833 238° Southwest 380 437 34,000  Level Gander Center
12:31PM 57.2333 -44.8333 231° Southwest 390 449 34,000  Level Gander Center
12:32PM 57.1667 -44.9833 231° Southwest 390 449 34,000  Level Gander Center
12:33PM 57.1000 -45.1500 234° Southwest 390 449 34,000  Level Gander Center
12:34PM 57.0333 -45.3000 231° Southwest 390 449 34,000  Level Gander Center
12:35PM 56.9667 -45.4833 236° Southwest 390 449 34,000  Level Gander Center
12:36PM 56.9000 -45.6333 231° Southwest 390 449 34,000  Level Gander Center
12:37PM 56.8333 -45.7833 231° Southwest 390 449 34,000  Level Gander Center
12:38PM 56.7833 -45.9667 244° Southwest 390 449 34,000  Level Gander Center
12:39PM 56.7167 -46.1167 231° Southwest 400 460 34,000  Level Gander Center
12:40PM 56.6500 -46.2667 231° Southwest 400 460 34,000  Level Gander Center
12:41PM 56.5833 -46.4500 237° Southwest 400 460 34,000  Level Gander Center
12:42PM 56.5167 -46.6000 231° Southwest 400 460 34,000  Level Gander Center
12:43PM 56.4500 -46.7500 231° Southwest 400 460 34,000  Level Gander Center
12:44PM 56.3667 -46.9333 231° Southwest 410 472 34,000  Level Gander Center
12:45PM 56.3000 -47.0667 228° Southwest 410 472 34,000  Level Gander Center
12:46PM 56.2333 -47.2500 237° Southwest 410 472 34,000  Level Gander Center
12:47PM 56.1667 -47.4000 231° Southwest 410 472 34,000  Level Gander Center
12:48PM 56.1000 -47.5667 234° Southwest 410 472 34,000  Level Gander Center
12:49PM 56.0333 -47.7167 232° Southwest 410 472 34,000  Level Gander Center
01:26PM 53.8000 -54.4500 226° Southwest 500 575 34,000  Level Moncton Center
01:27PM 53.0160 -53.9373 228° Southwest  Level FlightAware Approximate
01:27PM 53.7333 -54.6333 238° Southwest 460 529 34,000  Level Moncton Center
01:28PM 52.9287 -54.0835 228° Southwest  Level FlightAware Approximate
01:28PM 53.6833 -54.8333 247° West 450 518 34,000  Level Moncton Center
01:29PM 52.8449 -54.2365 228° Southwest  Level FlightAware Approximate
01:29PM 53.6167 -55.0333 241° Southwest 450 518 34,000  Level Moncton Center
01:30PM 52.7608 -54.3890 228° Southwest  Level FlightAware Approximate
01:30PM 53.5500 -55.1833 233° Southwest 460 529 34,000  Level Moncton Center
01:31PM 52.6766 -54.5408 228° Southwest  Level FlightAware Approximate
01:31PM 53.4500 -55.3500 225° Southwest 470 541 34,000  Level Gander Center
01:32PM 52.5907 -54.6890 226° Southwest  Level Estimated
01:32PM 53.3833 -55.5000 233° Southwest 460 529 34,000  Level Gander Center
01:33PM 53.3000 -55.6833 233° Southwest 470 541 34,000  Level Moncton Center
01:34PM 53.2167 -55.8500 230° Southwest 470 541 34,000  Level Moncton Center
01:35PM 53.1167 -56.0000 222° Southwest 470 541 34,000  Level Moncton Center
01:36PM 53.0333 -56.1833 233° Southwest 470 541 34,000  Level Moncton Center
01:37PM 52.9333 -56.3333 222° Southwest 470 541 34,000  Level Moncton Center
01:38PM 52.8500 -56.5000 230° Southwest 470 541 34,000  Level Moncton Center
01:39PM 52.7833 -56.6667 237° Southwest 470 541 34,000  Level Moncton Center
01:41PM 52.6000 -56.9833 226° Southwest 480 552 34,000 360 Level Moncton Center
01:42PM 52.5000 -57.1667 228° Southwest 470 541 35,100 960 Climbing Moncton Center
01:43PM 52.4167 -57.3167 228° Southwest 470 541 36,000 420 Climbing Moncton Center
01:44PM 52.3333 -57.4667 228° Southwest 470 541 36,000  Level Moncton Center
01:45PM 52.2500 -57.6500 233° Southwest 470 541 36,000  Level Moncton Center
01:46PM 52.1500 -57.8000 223° Southwest 470 541 36,000  Level Gander Center
01:47PM 52.0667 -57.9667 231° Southwest 470 541 36,000  Level Gander Center
01:48PM 51.9833 -58.0833 221° Southwest 470 541 36,000  Level Moncton Center
01:49PM 51.9000 -58.2333 228° Southwest 470 541 36,000  Level Moncton Center
01:50PM 51.8000 -58.4167 229° Southwest 470 541 36,000  Level Moncton Center
01:51PM 51.7167 -58.5667 228° Southwest 470 541 36,000  Level Moncton Center
01:52PM 51.6333 -58.7167 228° Southwest 470 541 36,000  Level Gander Center
01:53PM 51.5167 -58.9167 227° Southwest 480 552 36,000  Level Gander Center
01:55PM 51.3500 -59.2000 227° Southwest 470 541 36,000  Level Moncton Center
01:56PM 51.2833 -59.3333 231° Southwest 470 541 36,000  Level Moncton Center
01:57PM 51.1667 -59.4833 219° Southwest 470 541 36,000  Level Moncton Center
01:58PM 51.0833 -59.6500 232° Southwest 480 552 36,000  Level Moncton Center
01:59PM 51.0000 -59.8000 229° Southwest 480 552 36,000  Level Moncton Center
02:00PM 50.9000 -59.9333 220° Southwest 480 552 36,000  Level Moncton Center
02:01PM 50.8000 -60.1000 227° Southwest 480 552 36,000  Level Moncton Center
02:02PM 50.7000 -60.2500 224° Southwest 480 552 36,000  Level Moncton Center
02:03PM 50.6167 -60.4167 232° Southwest 480 552 36,000  Level Moncton Center
02:04PM 50.5167 -60.5500 220° Southwest 480 552 36,000  Level Moncton Center
02:05PM 50.4333 -60.6833 226° Southwest 480 552 36,000  Level Moncton Center
02:06PM 50.3500 -60.8500 232° Southwest 490 564 36,000  Level Moncton Center
02:07PM 50.2500 -61.0000 224° Southwest 480 552 36,000  Level Moncton Center
02:08PM 50.1500 -61.1500 224° Southwest 480 552 36,000  Level Moncton Center
02:09PM 50.0500 -61.3000 224° Southwest 480 552 36,000  Level Moncton Center
02:10PM 49.9500 -61.4500 224° Southwest 480 552 36,000  Level Moncton Center
02:11PM 49.8667 -61.6000 229° Southwest 480 552 36,000  Level Moncton Center
02:12PM 49.7667 -61.7500 224° Southwest 470 541 36,000  Level Moncton Center
02:13PM 49.6833 -61.8833 226° Southwest 480 552 36,000  Level Moncton Center
02:14PM 49.5667 -62.0167 217° Southwest 480 552 36,000  Level Moncton Center
02:15PM 49.4833 -62.1833 232° Southwest 480 552 36,000  Level Moncton Center
02:16PM 49.3833 -62.3167 221° Southwest 460 529 36,000  Level Moncton Center
02:17PM 49.2833 -62.4500 221° Southwest 480 552 36,000  Level Moncton Center
02:18PM 49.2167 -62.5833 233° Southwest 470 541 36,000  Level Moncton Center
02:19PM 49.1000 -62.7333 220° Southwest 480 552 36,000  Level Moncton Center
02:20PM 49.0167 -62.8667 226° Southwest 470 541 36,000  Level Moncton Center
02:21PM 48.9167 -63.0167 225° Southwest 480 552 36,000  Level Moncton Center
02:22PM 48.8167 -63.1500 221° Southwest 490 564 36,000  Level Moncton Center
02:23PM 48.7167 -63.3000 225° Southwest 470 541 36,000  Level Moncton Center
02:24PM 48.6167 -63.4333 221° Southwest 480 552 36,000  Level Moncton Center
02:25PM 48.5167 -63.5667 221° Southwest 480 552 36,000  Level Moncton Center
02:26PM 48.4167 -63.7167 225° Southwest 480 552 36,000  Level Moncton Center
02:27PM 48.3333 -63.8500 227° Southwest 480 552 36,000  Level Moncton Center
02:28PM 48.2167 -64.0000 221° Southwest 480 552 36,000  Level Moncton Center
02:29PM 48.1333 -64.1167 223° Southwest 480 552 36,000  Level Moncton Center
02:30PM 48.0333 -64.2667 225° Southwest 480 552 36,000  Level Moncton Center
02:31PM 47.9333 -64.4000 222° Southwest 480 552 36,000  Level Moncton Center
02:32PM 47.8333 -64.5167 218° Southwest 470 541 36,000  Level Moncton Center
02:33PM 47.7333 -64.6667 225° Southwest 480 552 36,000  Level Moncton Center
02:34PM 47.6500 -64.8000 227° Southwest 480 552 36,000  Level Moncton Center
02:35PM 47.5333 -64.9500 221° Southwest 480 552 36,000  Level Moncton Center
02:36PM 47.4500 -65.0667 223° Southwest 480 552 36,000  Level Moncton Center
02:37PM 47.3500 -65.1833 218° Southwest 480 552 36,000  Level Moncton Center
02:38PM 47.2500 -65.3333 226° Southwest 480 552 36,000  Level Moncton Center
02:39PM 47.1500 -65.4500 218° Southwest 480 552 36,000  Level Moncton Center
02:40PM 47.0333 -65.5833 218° Southwest 480 552 36,000  Level Moncton Center
02:41PM 46.9500 -65.7167 228° Southwest 480 552 36,000  Level Moncton Center
02:42PM 46.8500 -65.8333 219° Southwest 480 552 36,000  Level Moncton Center
02:43PM 46.7500 -65.9667 222° Southwest 470 541 36,000  Level Moncton Center
02:44PM 46.6500 -66.1000 222° Southwest 470 541 36,000  Level Moncton Center
02:45PM 46.5500 -66.2167 219° Southwest 470 541 36,000  Level Moncton Center
02:46PM 46.4500 -66.3667 226° Southwest 470 541 36,000  Level Moncton Center
02:47PM 46.3667 -66.4833 224° Southwest 470 541 36,000  Level Moncton Center
02:48PM 46.2500 -66.6000 215° Southwest 470 541 36,000  Level Moncton Center
02:49PM 46.1667 -66.7333 228° Southwest 470 541 36,000  Level Moncton Center
02:55PM 45.6569 -67.5164 219° Southwest 471 542 36,000  Level FlightAware ADS-B (CYSG)
02:56PM 45.5637 -67.6245 219° Southwest 471 542 36,000  Level FlightAware ADS-B (CYSG)
02:56PM 45.5075 -67.6893 219° Southwest 471 542 36,000  Level FlightAware ADS-B (KBGR)
02:58PM 45.5637 -67.6245 219° Southwest 471 542 36,000  Level FlightAware ADS-B (CYSG)
03:02PM 44.8959 -68.3856 219° Southwest 472 543 36,000  Level FlightAware ADS-B (KBGR)
03:03PM 44.8379 -68.4508 219° Southwest 470 541 36,000  Level FlightAware ADS-B (KBGR)
03:03PM 44.7834 -68.5117 219° Southwest 471 542 36,000  Level FlightAware ADS-B (CYQI)
03:04PM 44.7273 -68.5742 219° Southwest 471 542 36,000  Level FlightAware ADS-B (KBGR)
03:04PM 44.6695 -68.6385 219° Southwest 471 542 36,000  Level FlightAware ADS-B (CYSG)
03:05PM 44.6150 -68.6991 218° Southwest 470 541 36,000  Level FlightAware ADS-B (CYSG)
03:05PM 44.5632 -68.7564 218° Southwest 469 540 36,000  Level FlightAware ADS-B (CYSG)
03:06PM 44.5244 -68.7993 218° Southwest 468 539 36,000  Level FlightAware ADS-B (CYQI)
03:06PM 44.4619 -68.8683 218° Southwest 467 537 36,000  Level FlightAware ADS-B (CYQI)
03:07PM 44.4059 -68.9297 218° Southwest 470 541 36,000  Level FlightAware ADS-B (CYSG)
03:07PM 44.3551 -68.9854 218° Southwest 472 543 36,000  Level FlightAware ADS-B (CYQI)
03:08PM 44.3026 -69.0429 218° Southwest 473 544 36,000  Level FlightAware ADS-B (CYQI)
03:08PM 44.2424 -69.1087 218° Southwest 474 545 36,000  Level FlightAware ADS-B (KBGR)
03:09PM 44.1906 -69.1651 218° Southwest 474 545 36,000  Level FlightAware ADS-B (KBGR)
03:10PM 44.1339 -69.2268 218° Southwest 475 547 36,000  Level FlightAware ADS-B (CYQI)
03:10PM 44.1042 -69.2588 218° Southwest 476 548 36,000  Level FlightAware ADS-B (KBOS)
03:10PM 44.0544 -69.3129 219° Southwest 469 540 36,000  Level FlightAware ADS-B (KASH)
03:11PM 43.9958 -69.3760 218° Southwest 470 541 36,000  Level FlightAware ADS-B (KASH)
03:11PM 43.9432 -69.4326 218° Southwest 470 541 36,000  Level FlightAware ADS-B (KASH)
03:12PM 43.8816 -69.4989 218° Southwest 478 550 36,000  Level FlightAware ADS-B (KBOS)
03:13PM 43.8118 -69.5735 218° Southwest 478 550 36,000  Level FlightAware ADS-B (KBOS)
03:13PM 43.7660 -69.6225 218° Southwest 478 550 36,000  Level FlightAware ADS-B (KBOS)
03:14PM 43.7044 -69.6882 218° Southwest 478 550 36,000  Level FlightAware ADS-B (KBOS)
03:14PM 43.6545 -69.7413 218° Southwest 478 550 36,000  Level FlightAware ADS-B (KBOS)
03:15PM 43.5898 -69.8100 218° Southwest 477 549 36,000  Level FlightAware ADS-B (KBOS)
03:15PM 43.5360 -69.8669 218° Southwest 478 550 36,000  Level FlightAware ADS-B (KBOS)
03:16PM 43.4869 -69.9187 218° Southwest 472 543 36,000  Level FlightAware ADS-B (KASH)
03:16PM 43.4316 -69.9770 218° Southwest 478 550 36,000  Level FlightAware ADS-B (KBOS)
03:17PM 43.3762 -70.0353 217° Southwest 478 550 36,000  Level FlightAware ADS-B (KBOS)
03:17PM 43.3257 -70.0882 217° Southwest 477 549 36,000  Level FlightAware ADS-B (KBOS)
03:18PM 43.2864 -70.1293 218° Southwest 472 543 36,000  Level FlightAware ADS-B (KASH)
03:18PM 43.2310 -70.1873 218° Southwest 473 544 36,000  Level FlightAware ADS-B (KASH)
03:19PM 43.1800 -70.2404 217° Southwest 478 550 36,000  Level FlightAware ADS-B (KBOS)
03:19PM 43.1282 -70.2943 217° Southwest 477 549 36,000  Level FlightAware ADS-B (KBOS)
03:20PM 43.0773 -70.3470 217° Southwest 476 548 36,000  Level FlightAware ADS-B (KBOS)
03:20PM 43.0535 -70.3718 218° Southwest 470 541 36,000  Level FlightAware ADS-B (KASH)
03:20PM 43.0229 -70.4035 218° Southwest 470 541 36,000  Level FlightAware ADS-B (KASH)
03:21PM 42.9665 -70.4618 217° Southwest 475 547 36,000  Level FlightAware ADS-B (KBOS)
03:21PM 42.9471 -70.4817 218° Southwest 469 540 36,000  Level FlightAware ADS-B (KASH)
03:21PM 42.8937 -70.5368 217° Southwest 475 547 36,000  Level FlightAware ADS-B (KBOS)
03:22PM 42.8375 -70.5944 217° Southwest 476 548 36,000  Level FlightAware ADS-B (KBOS)
03:23PM 42.7576 -70.6763 218° Southwest 471 542 36,000  Level FlightAware ADS-B (KASH)
03:23PM 42.6918 -70.7436 217° Southwest 478 550 36,000  Level FlightAware ADS-B (KBOS)
03:24PM 42.6401 -70.7962 217° Southwest 480 552 36,000  Level FlightAware ADS-B (KBOS)
03:24PM 42.5726 -70.8648 217° Southwest 481 554 36,000  Level FlightAware ADS-B (KASH)
03:25PM 42.5165 -70.9217 217° Southwest 481 554 36,000  Level FlightAware ADS-B (KASH)
03:25PM 42.4551 -70.9838 217° Southwest 479 551 36,000  Level FlightAware ADS-B (KBOS)
03:26PM 42.4029 -71.0364 217° Southwest 479 551 36,000  Level FlightAware ADS-B (KBOS)
03:26PM 42.3431 -71.0966 217° Southwest 478 550 36,000  Level FlightAware ADS-B (KBOS)
03:27PM 42.2856 -71.1544 217° Southwest 479 551 36,000  Level FlightAware ADS-B (KBOS)
03:28PM 42.2256 -71.2146 217° Southwest 477 549 36,000  Level FlightAware ADS-B (KASH)
03:28PM 42.1693 -71.2708 217° Southwest 478 550 36,000  Level FlightAware ADS-B (KASH)
03:29PM 42.1174 -71.3225 217° Southwest 478 550 36,000  Level FlightAware ADS-B (KOWD)
03:29PM 42.0557 -71.3840 217° Southwest 478 550 36,000  Level FlightAware ADS-B (KOWD)
03:30PM 42.0049 -71.4344 217° Southwest 478 550 36,000  Level FlightAware ADS-B (KOWD)
03:30PM 41.9304 -71.5083 216° Southwest 477 549 36,000  Level FlightAware ADS-B (KASH)
03:31PM 41.8744 -71.5635 216° Southwest 477 549 36,000  Level FlightAware ADS-B (KASH)
03:31PM 41.8180 -71.6192 216° Southwest 478 550 36,000  Level FlightAware ADS-B (KSNC)
03:32PM 41.7496 -71.6865 216° Southwest 479 551 36,000  Level FlightAware ADS-B (KOWD)
03:33PM 41.6969 -71.7381 216° Southwest 479 551 36,000  Level FlightAware ADS-B (KSNC)
03:33PM 41.6280 -71.8055 216° Southwest 479 551 36,000  Level FlightAware ADS-B (KSNC)
03:34PM 41.5419 -71.8895 216° Southwest 479 551 36,000  Level FlightAware ADS-B (KSNC)
03:35PM 41.4849 -71.9450 216° Southwest 480 552 36,000  Level FlightAware ADS-B (KSNC)
03:35PM 41.4298 -71.9985 216° Southwest 482 555 36,000  Level FlightAware ADS-B (KSNC)
03:36PM 41.3754 -72.0512 216° Southwest 480 552 36,000  Level FlightAware ADS-B (KSNC)
03:36PM 41.3038 -72.1204 216° Southwest 479 551 36,000  Level FlightAware ADS-B (KSNC)
03:37PM 41.2496 -72.1726 216° Southwest 478 550 36,000  Level FlightAware ADS-B (KSNC)
03:37PM 41.1809 -72.2395 218° Southwest 476 548 36,000  Level FlightAware ADS-B (KSNC)
03:38PM 41.1300 -72.2963 221° Southwest 475 547 36,000  Level FlightAware ADS-B (KSNC)
03:39PM 41.0627 -72.3716 220° Southwest 476 548 36,000  Level FlightAware ADS-B (KSNC)
03:39PM 41.0053 -72.4344 220° Southwest 477 549 36,000  Level FlightAware ADS-B (KWWD)
03:40PM 40.9437 -72.5013 220° Southwest 477 549 36,000  Level FlightAware ADS-B (KSNC)
03:40PM 40.9113 -72.5364 219° Southwest 476 548 36,000  Level FlightAware ADS-B (KSNC)
03:41PM 40.8575 -72.5947 219° Southwest 475 547 36,000  Level FlightAware ADS-B (KSNC)
03:41PM 40.8296 -72.6249 220° Southwest 468 539 36,000  Level FlightAware ADS-B (KWWD)
03:41PM 40.7718 -72.6871 219° Southwest 474 545 36,000  Level FlightAware ADS-B (KSNC)
03:42PM 40.7207 -72.7421 219° Southwest 475 547 36,000  Level FlightAware ADS-B (KSNC)
03:42PM 40.6721 -72.7943 219° Southwest 476 548 36,000  Level FlightAware ADS-B (KSNC)
03:43PM 40.6175 -72.8529 219° Southwest 476 548 36,000  Level FlightAware ADS-B (KSNC)
03:44PM 40.5494 -72.9256 219° Southwest 476 548 36,000  Level FlightAware ADS-B (KSNC)
03:44PM 40.4941 -72.9847 219° Southwest 476 548 36,000  Level FlightAware ADS-B (KSNC)
03:45PM 40.4333 -73.0493 219° Southwest 476 548 36,000  Level FlightAware ADS-B (KWWD)
03:45PM 40.3788 -73.1072 219° Southwest 476 548 36,000  Level FlightAware ADS-B (KSNC)
03:46PM 40.3189 -73.1706 219° Southwest 477 549 36,000  Level FlightAware ADS-B (KWWD)
03:46PM 40.2561 -73.2370 219° Southwest 477 549 36,000  Level FlightAware ADS-B (KSNC)
03:47PM 40.1976 -73.2988 219° Southwest 477 549 36,000  Level FlightAware ADS-B (KWWD)
03:48PM 40.1423 -73.3570 219° Southwest 478 550 36,000  Level FlightAware ADS-B (KWWD)
03:48PM 40.0825 -73.4198 219° Southwest 478 550 36,000  Level FlightAware ADS-B (KSNC)
03:49PM 40.0306 -73.4740 219° Southwest 479 551 36,000  Level FlightAware ADS-B (KSNC)
03:49PM 39.9802 -73.5267 219° Southwest 480 552 36,000  Level FlightAware ADS-B (KSNC)
03:50PM 39.9247 -73.5846 219° Southwest 482 555 36,000  Level FlightAware ADS-B (KSNC)
03:50PM 39.8715 -73.6399 219° Southwest 485 558 36,000  Level FlightAware ADS-B (KSNC)
03:51PM 39.8132 -73.7005 219° Southwest 480 552 36,000  Level FlightAware ADS-B (KWWD)
03:51PM 39.7598 -73.7558 219° Southwest 482 555 36,000  Level FlightAware ADS-B (KWWD)
03:52PM 39.7052 -73.8122 219° Southwest 482 555 36,000  Level FlightAware ADS-B (KWWD)
03:52PM 39.6463 -73.8731 219° Southwest 487 560 36,000  Level FlightAware ADS-B (KPHL)
03:53PM 39.5896 -73.9315 219° Southwest 479 551 36,000  Level FlightAware ADS-B (KWWD)
03:54PM 39.4928 -74.0308 219° Southwest 479 551 36,000  Level FlightAware ADS-B (KWWD)
03:54PM 39.4460 -74.0787 218° Southwest 485 558 36,000  Level FlightAware ADS-B (KPHL)
03:55PM 39.3590 -74.1676 219° Southwest 479 551 36,000  Level FlightAware ADS-B (KWWD)
03:56PM 39.2998 -74.2279 219° Southwest 479 551 36,000  Level FlightAware ADS-B (KWWD)
03:56PM 39.2481 -74.2804 219° Southwest 479 551 36,000  Level FlightAware ADS-B (KWWD)
03:57PM 39.1838 -74.3457 219° Southwest 479 551 36,000  Level FlightAware ADS-B (KWWD)
03:57PM 39.1222 -74.4079 219° Southwest 480 552 36,000  Level FlightAware ADS-B (KWWD)
03:58PM 39.0548 -74.4760 218° Southwest 487 560 36,000  Level FlightAware ADS-B (KWWD)
03:58PM 38.9981 -74.5330 218° Southwest 487 560 36,000  Level FlightAware ADS-B (KWWD)
03:59PM 38.9426 -74.5888 218° Southwest 487 560 36,000  Level FlightAware ADS-B (KWWD)
04:00PM 38.8754 -74.6562 219° Southwest 479 551 36,000  Level FlightAware ADS-B (KWWD)
04:00PM 38.8012 -74.7303 219° Southwest 479 551 36,000  Level FlightAware ADS-B (KWWD)
04:01PM 38.7189 -74.8124 218° Southwest 486 559 36,000  Level FlightAware ADS-B (KWWD)
04:02PM 38.6262 -74.9045 218° Southwest 485 558 36,000  Level FlightAware ADS-B (KWWD)
04:03PM 38.5602 -74.9700 219° Southwest 478 550 36,000  Level FlightAware ADS-B (KWWD)
04:03PM 38.4829 -75.0464 218° Southwest 477 549 36,000  Level FlightAware ADS-B (KWWD)
04:04PM 38.4277 -75.1008 218° Southwest 483 556 36,000  Level FlightAware ADS-B (KSBY)
04:04PM 38.3593 -75.1681 218° Southwest 476 548 36,000  Level FlightAware ADS-B (KWWD)
04:05PM 38.3014 -75.2250 218° Southwest 482 555 36,000  Level FlightAware ADS-B (KSBY)
04:06PM 38.2416 -75.2836 218° Southwest 476 548 36,000  Level FlightAware ADS-B (KWWD)
04:06PM 38.2088 -75.3157 218° Southwest 483 556 36,000  Level FlightAware ADS-B (KSBY)
04:07PM 38.1118 -75.4103 218° Southwest 476 548 36,000  Level FlightAware ADS-B (KWWD)
04:07PM 38.0568 -75.4622 214° Southwest 484 557 36,000  Level FlightAware ADS-B (KWWD)
04:08PM 37.9976 -75.5059 208° Southwest 486 559 36,000  Level FlightAware ADS-B (KSBY)
04:08PM 37.9203 -75.5576 208° Southwest 479 551 36,000  Level FlightAware ADS-B (KWWD)
04:09PM 37.8489 -75.6059 209° Southwest 478 550 36,000  Level FlightAware ADS-B (KWWD)
04:09PM 37.8291 -75.6194 208° Southwest 486 559 36,000  Level FlightAware ADS-B (KSBY)
04:10PM 37.7215 -75.6928 209° Southwest 479 551 36,000  Level FlightAware ADS-B (KWWD)
04:11PM 37.6610 -75.7339 209° Southwest 480 552 36,000  Level FlightAware ADS-B (KWWD)
04:11PM 37.5862 -75.7846 209° Southwest 479 551 36,000  Level FlightAware ADS-B (KWWD)
04:12PM 37.5234 -75.8271 209° Southwest 478 550 36,000  Level FlightAware ADS-B (KWWD)
04:12PM 37.4640 -75.8672 209° Southwest 478 550 36,000  Level FlightAware ADS-B (KWWD)
04:13PM 37.3865 -75.9195 209° Southwest 484 557 36,000  Level FlightAware ADS-B (KDCA)
04:13PM 37.3254 -75.9606 209° Southwest 479 551 36,000  Level FlightAware ADS-B (KWWD)
04:14PM 37.2577 -76.0061 209° Southwest 478 550 36,000  Level FlightAware ADS-B (KWWD)
04:15PM 37.1512 -76.0773 209° Southwest 478 550 36,000  Level FlightAware ADS-B (KWWD)
04:15PM 37.0871 -76.1201 209° Southwest 478 550 36,000  Level FlightAware ADS-B (KWWD)
04:16PM 36.9934 -76.1826 209° Southwest 484 557 36,000  Level FlightAware ADS-B (KDCA)
04:17PM 36.9197 -76.2316 208° Southwest 485 558 36,000  Level FlightAware ADS-B (KDCA)
04:17PM 36.8515 -76.2768 208° Southwest 479 551 36,000  Level FlightAware ADS-B (KWWD)
04:18PM 36.7948 -76.3143 208° Southwest 479 551 36,000  Level FlightAware ADS-B (KWWD)
04:19PM 36.6911 -76.3827 208° Southwest 479 551 36,000  Level FlightAware ADS-B (KWWD)
04:19PM 36.6309 -76.4224 208° Southwest 478 550 36,000  Level FlightAware ADS-B (KWWD)
04:20PM 36.5700 -76.4624 208° Southwest 478 550 36,000  Level FlightAware ADS-B (KWWD)
04:20PM 36.5125 -76.5002 208° Southwest 485 558 36,000  Level FlightAware ADS-B (KDCA)
04:21PM 36.4494 -76.5415 208° Southwest 485 558 36,000  Level FlightAware ADS-B
04:21PM 36.3951 -76.5770 208° Southwest 485 558 36,000  Level FlightAware ADS-B
04:22PM 36.3014 -76.6382 208° Southwest 487 560 36,000  Level FlightAware ADS-B
04:23PM 36.2112 -76.6969 208° Southwest 487 560 36,000  Level FlightAware ADS-B
04:23PM 36.1513 -76.7359 208° Southwest 487 560 36,000  Level FlightAware ADS-B
04:24PM 36.0556 -76.7978 208° Southwest 486 559 36,000  Level FlightAware ADS-B
04:25PM 35.9677 -76.8546 208° Southwest 486 559 36,000  Level FlightAware ADS-B
04:25PM 35.9070 -76.8938 208° Southwest 487 560 36,000  Level FlightAware ADS-B
04:26PM 35.8469 -76.9324 208° Southwest 487 560 36,000  Level FlightAware ADS-B
04:27PM 35.7613 -76.9875 208° Southwest 488 562 36,000  Level FlightAware ADS-B
04:27PM 35.6974 -77.0285 208° Southwest 486 559 36,000  Level FlightAware ADS-B
04:28PM 35.6356 -77.0680 208° Southwest 486 559 36,000  Level FlightAware ADS-B
04:28PM 35.5752 -77.1066 208° Southwest 487 560 36,000  Level FlightAware ADS-B
04:29PM 35.4980 -77.1558 208° Southwest 487 560 36,000  Level FlightAware ADS-B
04:29PM 35.4279 -77.2003 207° Southwest 489 563 36,000  Level FlightAware ADS-B
04:30PM 35.3599 -77.2436 208° Southwest 488 562 36,000  Level FlightAware ADS-B
04:31PM 35.2604 -77.3066 207° Southwest 487 560 36,000  Level FlightAware ADS-B
04:31PM 35.1836 -77.3551 207° Southwest 487 560 36,000  Level FlightAware ADS-B
04:32PM 35.0756 -77.4232 207° Southwest 488 562 36,000  Level FlightAware ADS-B
04:33PM 34.9807 -77.4829 207° Southwest 490 564 36,000  Level FlightAware ADS-B
04:34PM 34.9007 -77.5330 207° Southwest 492 566 36,000  Level FlightAware ADS-B
04:35PM 34.7903 -77.6006 207° Southwest 488 562 36,000  Level Washington Center
04:36PM 34.6683 -77.6767 207° Southwest 489 563 36,000  Level Washington Center
04:37PM 34.5231 -77.7686 208° Southwest 490 564 36,000  Level Washington Center
04:38PM 34.4025 -77.8436 207° Southwest 489 563 36,000  Level Washington Center
04:39PM 34.2722 -77.8947 198° South 492 566 36,000  Level Washington Center
04:40PM 34.1394 -77.9372 195° South 492 566 36,000  Level Washington Center
04:41PM 34.0050 -77.9764 194° South 492 566 36,000  Level Washington Center
04:42PM 33.8578 -78.0167 193° South 494 568 36,000  Level Washington Center
04:43PM 33.7236 -78.0561 194° South 497 572 36,000  Level Washington Center
04:44PM 33.5928 -78.0942 194° South 491 565 36,000  Level Washington Center
04:45PM 33.4731 -78.1269 193° South 498 573 36,000  Level Jacksonville Center
04:46PM 33.3389 -78.1664 194° South 498 573 36,000  Level Jacksonville Center
04:47PM 33.2047 -78.2033 193° South 506 582 36,000  Level Jacksonville Center
04:48PM 33.0725 -78.2425 194° South 506 582 36,000  Level Jacksonville Center
04:49PM 32.9486 -78.2761 193° South 506 582 36,000  Level Jacksonville Center
04:50PM 32.8144 -78.3150 194° South 506 582 36,000  Level Jacksonville Center
04:51PM 32.6697 -78.3544 193° South 501 577 36,000  Level Jacksonville Center
04:52PM 32.5353 -78.3908 193° South 506 582 36,000  Level Jacksonville Center
04:53PM 32.4153 -78.4239 193° South 506 582 36,000  Level Jacksonville Center
04:54PM 32.2731 -78.4700 195° South 500 575 36,000  Level Jacksonville Center
04:55PM 32.1386 -78.5086 194° South 495 570 36,000  Level Jacksonville Center
04:56PM 32.0086 -78.5464 194° South 489 563 36,000  Level Jacksonville Center
04:57PM 31.8783 -78.5844 194° South 489 563 36,000  Level Jacksonville Center
04:58PM 31.7458 -78.6225 194° South 489 563 36,000  Level Jacksonville Center
04:59PM 31.6156 -78.6578 193° South 489 563 36,000  Level Jacksonville Center
05:00PM 31.4833 -78.7003 195° South 489 563 36,000  Level Jacksonville Center
05:01PM 31.3553 -78.7353 193° South 489 563 36,000  Level Jacksonville Center
05:02PM 31.2247 -78.7678 192° South 485 558 36,000  Level Jacksonville Center
05:03PM 31.0903 -78.8100 195° South 485 558 36,000  Level Jacksonville Center
05:04PM 30.9600 -78.8447 193° South 486 559 36,000  Level Jacksonville Center
05:05PM 30.8256 -78.8819 193° South 486 559 36,000  Level Jacksonville Center
05:06PM 30.6950 -78.9186 194° South 486 559 36,000  Level Jacksonville Center
05:06PM 30.6197 -78.9411 194° South 486 559 36,000  Level Miami Center
05:08PM 30.4878 -78.9778 193° South 486 559 36,000  Level Miami Center
05:09PM 30.3561 -79.0222 196° South 489 563 36,000  Level Miami Center
05:10PM 30.2306 -79.0808 202° Southwest 489 563 36,000  Level Miami Center
05:11PM 30.1042 -79.1344 200° South 488 562 36,000  Level Miami Center
05:12PM 29.9692 -79.1931 201° Southwest 486 559 36,000  Level Miami Center
05:13PM 29.8428 -79.2436 199° South 482 555 36,000  Level Miami Center
05:14PM 29.7150 -79.2911 198° South 482 555 36,000  Level Miami Center
05:15PM 29.5872 -79.3397 198° South 484 557 36,000  Level Miami Center
05:21PM 28.7644 -79.6464 198° South 469 540 36,000  Level FlightAware ADS-B (KMCO)
05:24PM 28.3966 -79.7826 198° South 475 547 36,000  Level FlightAware ADS-B (KMCO)
05:25PM 28.2358 -79.8730 213° Southwest 472 543 36,000  Level FlightAware ADS-B (KMCO)
05:26PM 28.1920 -79.9056 213° Southwest 471 542 36,000  Level FlightAware ADS-B (KMCO)
05:28PM 27.9772 -80.0483 208° Southwest 467 537 36,000  Level FlightAware ADS-B (KMCO)
05:28PM 27.9140 -80.0858 208° Southwest 467 537 36,000  Level FlightAware ADS-B (KEYW)
05:29PM 27.8598 -80.1185 208° Southwest 467 537 36,000  Level FlightAware ADS-B (KMCO)
05:29PM 27.7831 -80.1654 209° Southwest 468 539 36,000  Level FlightAware ADS-B (KMCO)
05:30PM 27.7656 -80.1761 209° Southwest 468 539 36,000  Level FlightAware ADS-B (KEYW)
05:30PM 27.7607 -80.1791 209° Southwest 468 539 36,000  Level FlightAware ADS-B (KEYW)
05:30PM 27.7079 -80.2117 209° Southwest 468 539 36,000  Level FlightAware ADS-B (KMCO)
05:31PM 27.6325 -80.2580 208° Southwest 468 539 36,000  Level FlightAware ADS-B (KMCO)
05:31PM 27.5477 -80.2920 197° South 468 539 36,000  Level FlightAware ADS-B (KMCO)
05:33PM 27.4081 -80.3403 198° South 467 537 36,000  Level FlightAware ADS-B (KEYW)
05:33PM 27.3458 -80.3627 198° South 466 536 36,000  Level FlightAware ADS-B (KEYW)
05:34PM 27.2828 -80.3854 198° South 465 535 36,000  Level FlightAware ADS-B (KEYW)
05:34PM 27.2214 -80.4073 198° South 466 536 36,000  Level FlightAware ADS-B (KEYW)
05:35PM 27.1629 -80.4284 198° South 468 539 36,000 1,080 Level FlightAware ADS-B (KEYW)
05:36PM 26.9868 -80.4913 198° South 462 532 38,100 840 Climbing FlightAware ADS-B (KMCO)
05:39PM 26.6044 -80.6274 198° South 460 529 40,000 480 Climbing FlightAware ADS-B (KMCO)
05:40PM 26.5295 -80.6609 209° Southwest 458 527 40,000  Level FlightAware ADS-B (KMCO)
05:41PM 26.4472 -80.7164 209° Southwest 458 527 40,000  Level Miami Center
05:42PM 26.3392 -80.7900 211° Southwest 458 527 40,000  Level Miami Center
05:47PM 25.6726 -81.0647 219° Southwest 465 535 40,000  Level FlightAware ADS-B (KEYW)
05:48PM 25.5885 -81.1392 219° Southwest 464 534 40,000 -300 Level FlightAware ADS-B (KEYW)
05:49PM 25.5204 -81.1992 219° Southwest 485 558 39,600 -840 Descending FlightAware ADS-B (KEYW)
05:49PM 25.4668 -81.2466 219° Southwest 482 555 39,100 -1,020 Descending FlightAware ADS-B (KEYW)
05:50PM 25.4162 -81.2913 219° Southwest 478 550 38,600 -900 Descending FlightAware ADS-B (KEYW)
05:50PM 25.3662 -81.3353 219° Southwest 478 550 38,200 -1,020 Descending FlightAware ADS-B (KEYW)
05:51PM 25.3121 -81.3829 219° Southwest 481 554 37,600 -1,020 Descending FlightAware ADS-B (KEYW)
05:51PM 25.2596 -81.4289 219° Southwest 483 556 37,200 -1,020 Descending FlightAware ADS-B (KEYW)
05:52PM 25.2052 -81.4766 219° Southwest 486 559 36,600 -1,020 Descending FlightAware ADS-B (KEYW)
05:52PM 25.1528 -81.5226 219° Southwest 486 559 36,200 -1,020 Descending FlightAware ADS-B (KEYW)
05:53PM 25.0998 -81.5690 219° Southwest 484 557 35,600 -1,020 Descending FlightAware ADS-B (KEYW)
05:53PM 25.0482 -81.6141 219° Southwest 477 549 35,200 -960 Descending FlightAware ADS-B (KEYW)
05:54PM 24.9871 -81.6673 219° Southwest 474 545 34,600 -1,020 Descending FlightAware ADS-B (KEYW)
05:54PM 24.9357 -81.7121 219° Southwest 471 542 34,100 -1,020 Descending FlightAware ADS-B (KEYW)
05:55PM 24.8844 -81.7567 219° Southwest 463 533 33,600 -1,380 Descending FlightAware ADS-B (KEYW)
05:56PM 24.7922 -81.8400 219° Southwest 467 537 32,000 -1,260 Descending Miami Center
05:57PM 24.6942 -81.9253 218° Southwest 454 522 31,000 -1,020 Descending Miami Center
05:58PM 24.5975 -82.0064 217° Southwest 443 510 30,000 -1,020 Descending Miami Center
05:59PM 24.5019 -82.0889 218° Southwest 440 506 29,000 -540 Descending Miami Center
06:00PM 24.3900 -82.1856 218° Southwest 432 497 29,000  Level Miami Center
06:01PM 24.2953 -82.2669 218° Southwest 432 497 29,000  Level Miami Center
06:02PM 24.1997 -82.3492 218° Southwest 432 497 29,000 -2,640 Level Miami Center
06:08PM 23.5751 -82.5789 193° South 325 374 10,700 -2,880 Descending FlightAware ADS-B (KEYW)
06:09PM 23.5133 -82.5888 187° South 308 354 10,100 -900 Descending FlightAware ADS-B (KEYW)
06:09PM 23.4928 -82.5905 184° South 303 349 9,900 -1,260 Descending FlightAware ADS-B (KEYW)
06:09PM 23.4577 -82.5912 181° South 303 349 9,300 -1,500 Descending FlightAware ADS-B (KEYW)
06:10PM 23.4361 -82.5915 181° South 304 350 8,900 -1,380 Descending FlightAware ADS-B (KEYW)
06:10PM 23.4085 -82.5921 182° South 303 349 8,500 -1,200 Descending FlightAware ADS-B (KEYW)
06:10PM 23.3870 -82.5928 182° South 300 345 8,200 -1,020 Descending FlightAware ADS-B (KEYW)
06:11PM 23.3663 -82.5935 182° South 296 341 8,000 -780 Descending FlightAware ADS-B (KEYW)
06:11PM 23.3462 -82.5943 182° South 292 336 7,800 -1,080 Descending FlightAware ADS-B (KEYW)
06:11PM 23.3290 -82.5949 182° South 291 335 7,500 -1,260 Descending FlightAware ADS-B (KEYW)
06:11PM 23.2987 -82.5960 183° South 291 335 7,100 -1,320 Descending FlightAware ADS-B (KEYW)
06:12PM 23.2793 -82.5967 182° South 293 337 6,700 -1,380 Descending FlightAware ADS-B (KEYW)
06:12PM 23.2508 -82.5977 182° South 292 336 6,300 -1,020 Descending FlightAware ADS-B (KEYW)
06:12PM 23.2310 -82.5984 182° South 289 333 6,100 -1,080 Descending FlightAware ADS-B (KEYW)
06:12PM 23.2136 -82.5990 182° South 288 331 5,800 -1,200 Descending FlightAware ADS-B (KEYW)
06:13PM 23.1905 -82.6000 182° South 287 330 5,500 -1,260 Descending FlightAware ADS-B (KEYW)
06:13PM 23.1750 -82.6011 186° South 286 329 5,200 -1,500 Descending FlightAware ADS-B (KEYW)
06:15PM 23.0331 -82.4545 136° Southeast  Level Estimated
06:16PM 22.9891 -82.4091 180° South  Level Estimated
06:17PM 22.9891 -82.4091 180° South  Level Estimated
06:18PM 22.9891 -82.4091 180° South  Level Estimated
06:19PM 22.9891 -82.4091 180° South  Level Estimated
06:20PM 22.9891 -82.4091 180° South  Level Estimated
06:21PM 22.9891 -82.4091 180° South  Level Estimated
06:22PM 22.9891 -82.4091 180° South  Level Estimated
06:23PM 22.9891 -82.4091 180° South  Level Estimated
06:24PM 22.9891 -82.4091 180° South  Level Estimated
06:25PM 22.9891 -82.4091 180° South  Level Estimated
06:26PM 22.9891 -82.4091 180° South  Level Estimated
06:27PM 22.9891 -82.4091 180° South  Level Estimated
06:28PM 22.9891 -82.4091 180° South  Level Estimated
06:29PM 22.9891 -82.4091 180° South  Level Estimated
06:30PM 22.9891 -82.4091 180° South  Level Estimated
06:31PM 22.9891 -82.4091 180° South  Level Estimated
06:32PM 22.9891 -82.4091 180° South  Level Estimated
06:33PM 22.9891 -82.4091 180° South  Level Estimated
06:34PM 22.9891 -82.4091 180° South  Level Estimated
06:35PM 22.9891 -82.4091 180° South  Level Estimated